Time;durP1;ratioP1;P1;durP2;ratioP2;P2;SDS_P1;SDS_P2;PMS_P1;PMS_P2;Temp;Humidity;BMP_temperature;BMP_pressure;BME280_temperature;BME280_humidity;BME280_pressure;Samples;Min_cycle;Max_cycle;Signal;HPM_P1;HPM_P2
2022/12/08 00:02:02;;;;;;;31.77;21.23;;;;;;;8.65;100.00;-9142.81;5073005;28;20181;-62
2022/12/08 00:09:20;;;;;;;31.40;21.80;;;;;;;8.51;100.00;-12315.56;5073022;28;20196;-62
2022/12/08 00:10:02;;;;;;;31.17;21.83;;;;;;;8.52;100.00;-12950.19;5072447;28;20578;-62
2022/12/08 00:12:28;;;;;;;27.40;20.37;;;;;;;8.43;100.00;-8823.13;5072574;28;20189;-63
2022/12/08 00:14:55;;;;;;;29.67;19.23;;;;;;;8.21;100.00;-5327.28;5072696;28;20211;-62
2022/12/08 00:17:22;;;;;;;30.70;20.30;;;;;;;8.29;100.00;-11677.97;5072813;28;20541;-61
2022/12/08 00:19:49;;;;;;;32.67;19.83;;;;;;;8.55;100.00;-16121.31;5072411;28;20216;-61
2022/12/08 00:22:17;;;;;;;34.13;19.47;;;;;;;8.87;100.00;-15176.59;5072644;28;20187;-63
2022/12/08 00:24:45;;;;;;;29.40;20.63;;;;;;;8.96;100.00;-14543.97;5072364;28;20185;-62
2022/12/08 00:27:14;;;;;;;35.87;20.13;;;;;;;8.86;100.00;-13907.53;5072323;28;20284;-63
2022/12/08 00:29:43;;;;;;;33.67;21.03;;;;;;;9.16;100.00;-13277.84;5072256;28;20235;-62
2022/12/08 00:32:10;;;;;;;32.03;20.93;;;;;;;9.34;100.00;-13280.72;5072151;28;20224;-62
2022/12/08 00:34:37;;;;;;;32.93;20.60;;;;;;;9.41;100.00;-13281.94;5072176;28;20180;-62
2022/12/08 00:37:04;;;;;;;33.87;21.57;;;;;;;9.43;100.00;-12964.63;5072351;28;20643;-62
2022/12/08 00:39:32;;;;;;;31.43;21.13;;;;;;;9.48;100.00;-12965.41;5072314;28;20181;-61
2022/12/08 00:42:14;;;;;;;33.50;21.00;;;;;;;9.55;100.00;-12966.53;5072223;28;20181;-62
2022/12/08 00:44:42;;;;;;;30.73;20.57;;;;;;;9.56;100.00;-12648.88;5072055;28;20199;-61
2022/12/08 00:47:09;;;;;;;31.77;20.47;;;;;;;9.62;100.00;-12332.06;5072222;28;20192;-63
2022/12/08 00:49:36;;;;;;;35.30;19.50;;;;;;;9.64;100.00;-12332.28;5072120;28;20233;-62
2022/12/08 00:52:03;;;;;;;29.17;20.73;;;;;;;9.75;100.00;-12333.84;5072093;28;20208;-62
2022/12/08 00:54:30;;;;;;;30.43;20.87;;;;;;;9.82;100.00;-11380.94;5072032;28;20189;-61
2022/12/08 00:56:58;;;;;;;36.77;22.40;;;;;;;9.72;100.00;-6606.53;5070465;28;20188;-62
2022/12/08 00:59:25;;;;;;;41.57;26.23;;;;;;;9.63;100.00;1363.50;5071808;28;20181;-64
2022/12/08 01:01:52;;;;;;;24.87;17.70;;;;;;;9.43;100.00;5831.94;5071733;28;20184;-62
2022/12/08 01:04:20;;;;;;;22.90;17.17;;;;;;;9.37;100.00;723.56;5072154;28;20193;-61
2022/12/08 01:06:47;;;;;;;26.83;20.03;;;;;;;9.21;100.00;-4375.75;5071699;28;20177;-63
2022/12/08 01:09:15;;;;;;;44.90;24.50;;;;;;;9.15;100.00;-7239.69;5071773;28;20188;-62
2022/12/08 01:11:44;;;;;;;24.37;16.37;;;;;;;9.06;100.00;-5012.00;5071678;28;20208;-62
2022/12/08 01:14:12;;;;;;;22.73;16.83;;;;;;;9.29;100.00;-14232.44;5071684;28;20181;-62
2022/12/08 01:16:40;;;;;;;27.77;17.80;;;;;;;9.36;100.00;-17724.44;5071816;28;20612;-63
2022/12/08 01:19:07;;;;;;;28.13;17.80;;;;;;;9.42;100.00;-17408.75;5071594;28;20216;-61
2022/12/08 01:21:34;;;;;;;23.50;17.20;;;;;;;9.50;100.00;-16776.00;5071900;28;20180;-62
2022/12/08 01:24:01;;;;;;;25.23;19.00;;;;;;;9.63;100.00;-15826.53;5071561;28;20192;-62
2022/12/08 01:26:28;;;;;;;21.53;17.77;;;;;;;9.50;100.00;-13918.72;5071431;28;20189;-62
2022/12/08 01:28:55;;;;;;;26.87;17.53;;;;;;;9.37;100.00;-9785.66;5071971;28;20200;-62
2022/12/08 01:31:23;;;;;;;30.47;17.53;;;;;;;9.41;100.00;-15187.19;5072400;28;20208;-61
2022/12/08 01:33:50;;;;;;;27.27;17.77;;;;;;;9.57;100.00;-16777.44;5071453;28;20188;-62
2022/12/08 01:36:21;;;;;;;24.90;17.80;;;;;;;9.60;100.00;-16778.22;5071752;28;20216;-62
2022/12/08 01:38:48;;;;;;;34.67;17.70;;;;;;;9.69;100.00;-15510.03;5071612;28;20199;-61
2022/12/08 01:41:16;;;;;;;27.80;17.97;;;;;;;9.30;100.00;-12327.19;5071356;28;20181;-62
2022/12/08 01:43:56;;;;;;;20.97;15.80;;;;;;;9.17;100.00;-8511.91;5071330;28;20181;-62
2022/12/08 01:46:25;;;;;;;19.87;15.27;;;;;;;9.24;100.00;-12326.38;5071633;28;20678;-62
2022/12/08 01:48:56;;;;;;;21.13;17.57;;;;;;;9.38;100.00;-16773.22;5070998;28;20192;-62
2022/12/08 01:51:24;;;;;;;23.20;16.40;;;;;;;9.25;100.00;-13279.31;5071571;28;20709;-62
2022/12/08 01:53:52;;;;;;;21.13;15.17;;;;;;;9.11;100.00;-9782.91;5071241;28;20185;-62
2022/12/08 01:56:26;;;;;;;20.40;17.50;;;;;;;8.96;100.00;-11687.16;5071323;28;20192;-62
2022/12/08 01:58:55;;;;;;;20.43;16.70;;;;;;;9.05;100.00;-11053.16;5071426;28;20177;-62
2022/12/08 02:01:24;;;;;;;22.10;15.53;;;;;;;9.06;100.00;-12006.22;5071478;28;20616;-62
2022/12/08 02:03:57;;;;;;;23.30;16.50;;;;;;;9.02;100.00;-12005.63;5071415;28;20185;-61
2022/12/08 02:06:25;;;;;;;22.73;16.30;;;;;;;8.85;100.00;-10097.75;5071257;28;20189;-61
2022/12/08 02:08:54;;;;;;;24.03;16.93;;;;;;;8.84;100.00;-8509.03;5072737;28;20180;-62
2022/12/08 02:11:21;;;;;;;20.37;16.57;;;;;;;8.78;100.00;-5965.34;5074916;28;20211;-62
2022/12/08 02:13:50;;;;;;;25.80;17.23;;;;;;;8.63;100.00;-4374.59;5075313;28;20181;-61
2022/12/08 02:16:31;;;;;;;21.43;17.00;;;;;;;8.63;100.00;-5646.75;5075327;28;20181;-61
2022/12/08 02:19:08;;;;;;;23.67;16.60;;;;;;;8.61;100.00;-5964.63;5075058;28;20193;-62
2022/12/08 02:21:44;;;;;;;22.63;16.00;;;;;;;8.59;100.00;-5964.53;5075173;28;20196;-61
2022/12/08 02:24:17;;;;;;;24.43;16.80;;;;;;;8.49;100.00;-3738.19;5074636;28;20200;-62
2022/12/08 02:27:28;;;;;;;36.30;20.53;;;;;;;8.24;100.00;-2783.94;5074983;28;20272;-62
2022/12/08 02:30:06;;;;;;;37.93;21.57;;;;;;;8.28;100.00;-3101.97;5070760;28;20204;-61
2022/12/08 02:33:17;;;;;;;34.13;24.93;;;;;;;8.11;100.00;-5009.16;5075708;28;20204;-60
2022/12/08 02:35:56;;;;;;;104.77;29.90;;;;;;;7.97;100.00;-6596.81;5074428;28;20189;-61
2022/12/08 02:38:36;;;;;;;244.13;34.40;;;;;;;7.73;100.00;-10402.34;5074437;28;20276;-62
2022/12/08 02:41:13;;;;;;;91.23;26.60;;;;;;;7.31;100.00;-12297.88;5074592;28;20177;-62
2022/12/08 02:43:44;;;;;;;220.67;33.87;;;;;;;7.26;100.00;-14512.69;5074238;28;20275;-61
2022/12/08 02:46:16;;;;;;;135.70;29.07;;;;;;;7.24;100.00;-12613.38;5074272;28;20570;-62
2022/12/08 02:48:43;;;;;;;113.63;28.47;;;;;;;7.27;100.00;-10713.75;5074333;28;20192;-61
2022/12/08 02:51:11;;;;;;;91.47;27.10;;;;;;;6.95;100.00;-7858.94;5072740;28;20254;-61
2022/12/08 02:53:39;;;;;;;58.70;27.27;;;;;;;6.85;100.00;-5956.56;5074411;28;20185;-61
2022/12/08 02:56:17;;;;;;;37.23;23.97;;;;;;;6.68;100.00;-3736.41;5074048;28;20192;-62
2022/12/08 02:58:59;;;;;;;33.97;20.37;;;;;;;6.55;100.00;-2467.66;5074342;28;20204;-61
2022/12/08 03:01:42;;;;;;;33.23;19.97;;;;;;;6.45;100.00;-4053.19;5074340;28;20185;-61
2022/12/08 03:04:17;;;;;;;36.40;19.60;;;;;;;6.28;100.00;-5003.53;5073907;28;20188;-62
2022/12/08 03:06:55;;;;;;;28.93;17.13;;;;;;;6.23;100.00;-3735.91;5073927;28;20191;-62
2022/12/08 03:09:30;;;;;;;34.80;18.13;;;;;;;6.18;100.00;-3418.94;5073885;28;20275;-61
2022/12/08 03:12:05;;;;;;;25.47;17.83;;;;;;;6.13;100.00;-3735.81;5073701;28;20204;-60
2022/12/08 03:14:34;;;;;;;26.43;18.03;;;;;;;6.48;100.00;-9121.66;5073619;28;20192;-61
2022/12/08 03:17:03;;;;;;;33.10;19.90;;;;;;;6.66;100.00;-9123.47;5073935;28;20287;-61
2022/12/08 03:19:34;;;;;;;31.47;20.37;;;;;;;6.56;100.00;-6588.91;5073555;28;20189;-61
2022/12/08 03:22:04;;;;;;;36.77;19.83;;;;;;;6.60;100.00;-4687.53;5073582;28;20189;-62
2022/12/08 03:24:35;;;;;;;34.23;18.70;;;;;;;6.68;100.00;-5004.78;5073845;28;20193;-61
2022/12/08 03:27:04;;;;;;;29.77;19.07;;;;;;;6.77;100.00;-5639.19;5073842;28;20188;-61
2022/12/08 03:29:32;;;;;;;32.60;19.90;;;;;;;6.86;100.00;-5322.44;5073432;28;20204;-60
2022/12/08 03:32:08;;;;;;;31.87;19.63;;;;;;;6.79;100.00;-3419.28;5073681;28;20209;-60
2022/12/08 03:34:36;;;;;;;27.57;17.63;;;;;;;6.48;100.00;-246.72;5073925;28;20655;-63
2022/12/08 03:37:04;;;;;;;29.60;17.00;;;;;;;6.61;100.00;388.88;5073225;28;20216;-62
2022/12/08 03:39:31;;;;;;;30.77;18.10;;;;;;;6.30;100.00;2927.06;5073272;28;20188;-61
2022/12/08 03:41:58;;;;;;;33.33;16.60;;;;;;;6.30;100.00;387.13;5073444;28;20183;-63
2022/12/08 03:44:25;;;;;;;38.03;17.47;;;;;;;6.40;100.00;387.72;5073526;28;20185;-62
2022/12/08 03:46:52;;;;;;;29.10;16.50;;;;;;;6.24;100.00;704.16;5073440;28;20653;-62
2022/12/08 03:49:19;;;;;;;24.47;16.33;;;;;;;6.23;100.00;-1516.66;5072502;28;20236;-62
2022/12/08 03:51:45;;;;;;;26.33;16.47;;;;;;;6.37;100.00;-2784.94;5072400;28;20690;-62
2022/12/08 03:54:14;;;;;;;27.03;18.40;;;;;;;6.33;100.00;-6270.88;5072306;28;20197;-61
2022/12/08 03:56:41;;;;;;;34.57;19.83;;;;;;;6.28;100.00;-7853.78;5072271;28;20188;-62
2022/12/08 03:59:08;;;;;;;30.07;19.10;;;;;;;6.34;100.00;-8170.84;5072074;28;20231;-61
2022/12/08 04:01:35;;;;;;;38.67;19.33;;;;;;;6.25;100.00;-6903.78;5071867;28;20181;-61
2022/12/08 04:04:02;;;;;;;40.00;19.37;;;;;;;5.89;100.00;-5002.34;5072180;28;20195;-61
2022/12/08 04:06:29;;;;;;;32.23;19.20;;;;;;;5.93;100.00;-3418.81;5072089;28;20243;-62
2022/12/08 04:08:56;;;;;;;38.07;18.60;;;;;;;6.03;100.00;-3735.72;5072068;28;20640;-62
2022/12/08 04:11:24;;;;;;;33.03;17.77;;;;;;;6.07;100.00;-2785.06;5072118;28;20319;-61
2022/12/08 04:13:51;;;;;;;35.83;19.67;;;;;;;6.10;100.00;-2785.06;5071938;28;20185;-61
2022/12/08 04:16:20;;;;;;;46.60;21.23;;;;;;;6.24;100.00;-2785.00;5072020;28;20575;-61
2022/12/08 04:18:47;;;;;;;29.53;18.00;;;;;;;6.06;100.00;-565.81;5071858;28;20189;-62
2022/12/08 04:21:15;;;;;;;34.20;18.23;;;;;;;6.19;100.00;-1199.66;5071725;28;20180;-61
2022/12/08 04:23:42;;;;;;;40.87;18.53;;;;;;;6.17;100.00;-882.53;5071691;28;20189;-62
2022/12/08 04:26:09;;;;;;;31.17;17.13;;;;;;;6.01;100.00;-566.00;5071678;28;20195;-61
2022/12/08 04:28:38;;;;;;;24.63;17.13;;;;;;;5.98;100.00;-883.19;5071928;28;20201;-61
2022/12/08 04:31:05;;;;;;;35.57;17.73;;;;;;;6.04;100.00;-2151.19;5071150;28;20658;-61
2022/12/08 04:33:33;;;;;;;34.93;17.90;;;;;;;6.02;100.00;-3735.69;5071259;28;20291;-61
2022/12/08 04:36:01;;;;;;;33.23;17.53;;;;;;;6.14;100.00;-4052.69;5071544;28;20188;-62
2022/12/08 04:38:29;;;;;;;30.93;19.40;;;;;;;6.05;100.00;-3735.72;5071538;28;20185;-61
2022/12/08 04:40:56;;;;;;;41.07;23.97;;;;;;;6.01;100.00;-6585.75;5069970;28;20184;-62
2022/12/08 04:43:23;;;;;;;41.00;22.33;;;;;;;6.00;100.00;-6269.19;5071426;28;20635;-61
2022/12/08 04:45:51;;;;;;;74.40;27.90;;;;;;;5.93;100.00;-5319.09;5071161;28;20192;-62
2022/12/08 04:48:18;;;;;;;109.17;29.87;;;;;;;5.69;100.00;-4368.59;5071551;28;20632;-62
2022/12/08 04:50:46;;;;;;;78.90;30.10;;;;;;;5.86;100.00;-2785.19;5028984;28;1219696;-61
2022/12/08 04:53:14;;;;;;;69.47;29.57;;;;;;;5.82;100.00;-2785.19;5071567;28;20201;-62
2022/12/08 04:55:43;;;;;;;68.67;29.13;;;;;;;5.70;100.00;-2468.47;5072085;28;20184;-61
2022/12/08 04:58:13;;;;;;;74.93;29.00;;;;;;;5.52;100.00;-2151.97;5071774;28;20279;-61
2022/12/08 05:00:40;;;;;;;115.10;29.70;;;;;;;5.55;100.00;-2468.63;5072038;28;20193;-61
2022/12/08 05:03:09;;;;;;;62.50;27.87;;;;;;;5.63;100.00;-3101.97;5071838;28;20180;-62
2022/12/08 05:05:36;;;;;;;63.30;28.67;;;;;;;5.68;100.00;-3101.97;5071987;28;20219;-62
2022/12/08 05:08:03;;;;;;;60.07;27.50;;;;;;;5.68;100.00;-2468.50;5072120;28;20276;-62
2022/12/08 05:10:29;;;;;;;54.50;27.23;;;;;;;5.74;100.00;-2785.22;5070699;28;20620;-61
2022/12/08 05:12:58;;;;;;;45.27;24.80;;;;;;;5.77;100.00;-2151.59;5071551;28;20266;-62
2022/12/08 05:15:25;;;;;;;47.60;23.70;;;;;;;5.72;100.00;-1517.97;5071560;28;20275;-62
2022/12/08 05:17:54;;;;;;;34.60;23.17;;;;;;;5.88;100.00;-2785.16;5071978;28;20216;-61
2022/12/08 05:20:23;;;;;;;50.03;24.17;;;;;;;5.98;100.00;-3418.84;5071806;28;20189;-60
2022/12/08 05:22:50;;;;;;;48.27;24.33;;;;;;;6.11;100.00;-3418.91;5071471;28;20187;-62
2022/12/08 05:25:17;;;;;;;54.80;25.07;;;;;;;6.13;100.00;-2785.06;5071459;28;20189;-62
2022/12/08 05:27:44;;;;;;;43.90;23.53;;;;;;;6.07;100.00;-1517.06;5071313;28;20211;-61
2022/12/08 05:30:11;;;;;;;55.03;23.90;;;;;;;6.05;100.00;-1834.16;5071729;28;20196;-62
2022/12/08 05:32:38;;;;;;;53.63;34.73;;;;;;;5.99;100.00;-2468.19;5071774;28;20640;-62
2022/12/08 05:35:06;;;;;;;53.40;31.10;;;;;;;6.28;100.00;-4686.69;5071570;28;20200;-62
2022/12/08 05:37:35;;;;;;;48.23;28.67;;;;;;;6.37;100.00;-5637.53;5071322;28;20234;-62
2022/12/08 05:40:02;;;;;;;56.87;27.20;;;;;;;6.46;100.00;-5637.88;5071659;28;20181;-62
2022/12/08 05:42:29;;;;;;;57.10;25.90;;;;;;;6.58;100.00;-5321.44;5071481;28;20181;-62
2022/12/08 05:44:55;;;;;;;77.90;30.53;;;;;;;6.60;100.00;-4687.53;5075022;28;20659;-62
2022/12/08 05:47:22;;;;;;;68.20;29.37;;;;;;;6.50;100.00;-4370.28;5075471;28;20189;-62
2022/12/08 05:49:49;;;;;;;64.93;27.27;;;;;;;6.22;100.00;-3735.91;5075573;28;20619;-63
2022/12/08 05:52:16;;;;;;;58.07;27.67;;;;;;;6.53;100.00;-4370.34;5075476;28;20205;-61
2022/12/08 05:54:45;;;;;;;77.63;28.77;;;;;;;6.61;100.00;-5321.56;5075516;28;20643;-61
2022/12/08 05:57:11;;;;;;;61.27;27.43;;;;;;;6.54;100.00;-6588.78;5075529;28;20381;-62
2022/12/08 05:59:39;;;;;;;57.87;26.67;;;;;;;6.86;100.00;-7224.47;5075426;28;20560;-62
2022/12/08 06:02:06;;;;;;;57.63;27.10;;;;;;;6.80;100.00;-5956.31;5075427;28;20188;-62
2022/12/08 06:04:34;;;;;;;63.03;27.47;;;;;;;6.80;100.00;-5956.31;5075121;28;20275;-61
2022/12/08 06:07:01;;;;;;;81.40;31.17;;;;;;;6.88;100.00;-6273.72;5074975;28;20196;-61
2022/12/08 06:09:28;;;;;;;94.73;31.73;;;;;;;6.72;100.00;-5638.97;5075018;28;20188;-61
2022/12/08 06:11:56;;;;;;;89.07;30.23;;;;;;;6.85;100.00;-6590.53;5074749;28;20235;-61
2022/12/08 06:14:23;;;;;;;87.33;30.77;;;;;;;6.95;100.00;-6908.13;5074700;28;20185;-61
2022/12/08 06:16:49;;;;;;;114.73;30.23;;;;;;;7.03;100.00;-7542.59;5074870;28;20199;-62
2022/12/08 06:19:20;;;;;;;112.17;31.10;;;;;;;6.69;100.00;-7540.16;5075012;28;20207;-60
2022/12/08 06:21:46;;;;;;;72.17;26.13;;;;;;;6.92;100.00;-9442.69;5074875;28;20223;-61
2022/12/08 06:24:13;;;;;;;25.10;15.27;;;;;;;6.85;100.00;-10392.00;5074866;28;20559;-61
2022/12/08 06:26:40;;;;;;;17.40;14.27;;;;;;;6.77;100.00;-11657.06;5074525;28;20180;-62
2022/12/08 06:29:08;;;;;;;21.07;14.97;;;;;;;6.72;100.00;-11339.84;5074963;28;20211;-61
2022/12/08 06:31:35;;;;;;;17.87;15.63;;;;;;;6.64;100.00;-11022.44;5074662;28;20195;-61
2022/12/08 06:34:02;;;;;;;23.67;16.60;;;;;;;6.79;100.00;-11024.38;5074590;28;20212;-62
2022/12/08 06:36:29;;;;;;;19.13;16.90;;;;;;;6.88;100.00;-10708.97;5074651;28;20185;-61
2022/12/08 06:38:56;;;;;;;21.23;17.30;;;;;;;7.01;100.00;-10393.78;5073784;28;20180;-62
2022/12/08 06:41:23;;;;;;;46.33;20.93;;;;;;;7.24;100.00;-10079.72;5067420;28;20203;-61
2022/12/08 06:43:51;;;;;;;34.43;19.50;;;;;;;7.42;100.00;-10081.72;5074396;28;20578;-62
2022/12/08 06:46:19;;;;;;;40.10;18.60;;;;;;;7.44;100.00;-9765.03;5071216;28;20196;-62
2022/12/08 06:48:49;;;;;;;26.63;17.53;;;;;;;7.41;100.00;-9764.72;5073552;28;20181;-61
2022/12/08 06:51:17;;;;;;;30.17;17.90;;;;;;;7.28;100.00;-10080.22;5074355;28;20208;-60
2022/12/08 06:53:46;;;;;;;34.77;20.63;;;;;;;7.55;100.00;-11034.06;5073626;28;20679;-60
2022/12/08 06:56:15;;;;;;;48.70;20.57;;;;;;;7.49;100.00;-10082.50;5074096;28;20193;-61
2022/12/08 06:58:42;;;;;;;44.57;20.83;;;;;;;8.10;100.00;-10406.63;5073889;28;20192;-61
2022/12/08 07:01:11;;;;;;;40.93;23.37;;;;;;;8.63;100.00;-10412.91;5073891;28;20564;-62
2022/12/08 07:03:42;;;;;;;50.80;27.77;;;;;;;8.62;100.00;-5328.72;5073656;28;20187;-63
2022/12/08 07:06:15;;;;;;;53.97;33.60;;;;;;;8.45;100.00;-3420.09;5068608;28;20215;-62
2022/12/08 07:09:08;;;;;;;71.97;37.37;;;;;;;8.55;100.00;-2783.75;5073494;28;20185;-61
2022/12/08 07:11:42;;;;;;;70.67;39.10;;;;;;;8.45;100.00;-2465.66;5071883;28;20266;-62
2022/12/08 07:14:17;;;;;;;59.13;36.83;;;;;;;8.32;100.00;-5645.50;5071691;28;20299;-63
2022/12/08 07:16:50;;;;;;;60.80;37.87;;;;;;;8.48;100.00;-7235.25;5071486;28;20226;-63
2022/12/08 07:19:23;;;;;;;72.67;41.73;;;;;;;8.70;100.00;-7554.53;5071639;28;20212;-62
2022/12/08 07:21:56;;;;;;;98.83;47.20;;;;;;;8.73;100.00;-7236.84;5071072;28;20224;-62
2022/12/08 07:24:23;;;;;;;94.83;48.47;;;;;;;8.69;100.00;-6918.75;5071543;28;20192;-62
2022/12/08 07:26:50;;;;;;;123.95;58.67;;;;;;;8.52;100.00;-7870.94;5071669;28;20437;-61
2022/12/08 07:29:17;;;;;;;118.60;62.77;;;;;;;8.46;100.00;-10410.91;5072483;28;20537;-61
2022/12/08 07:32:00;;;;;;;150.07;68.90;;;;;;;8.50;100.00;-11998.22;5071769;28;20189;-62
2022/12/08 07:34:29;;;;;;;204.90;67.03;;;;;;;8.60;100.00;-12316.97;5072620;28;20220;-61
2022/12/08 07:36:56;;;;;;;149.10;65.97;;;;;;;8.66;100.00;-10730.78;5072800;28;20196;-62
2022/12/08 07:39:23;;;;;;;152.10;65.73;;;;;;;8.45;100.00;-10410.72;5071973;28;20193;-61
2022/12/08 07:41:50;;;;;;;118.67;65.03;;;;;;;8.40;100.00;-12313.97;5072735;28;20222;-62
2022/12/08 07:44:17;;;;;;;134.87;67.00;;;;;;;8.46;100.00;-14534.78;5072921;28;20251;-62
2022/12/08 07:46:43;;;;;;;123.33;59.80;;;;;;;8.38;100.00;-15167.22;5073302;28;20208;-66
2022/12/08 07:49:10;;;;;;;101.70;54.37;;;;;;;8.39;100.00;-15167.41;5072606;28;20384;-63
2022/12/08 07:51:39;;;;;;;107.33;54.20;;;;;;;9.00;100.00;-16130.72;5072447;28;20231;-62
2022/12/08 07:54:06;;;;;;;109.53;53.43;;;;;;;9.41;100.00;-15821.91;5072815;28;20204;-61
2022/12/08 07:56:33;;;;;;;110.27;53.23;;;;;;;9.63;100.00;-12649.94;5072522;28;20193;-62
2022/12/08 07:59:02;;;;;;;226.43;136.57;;;;;;;9.69;100.00;-8516.34;5072420;28;20187;-63
2022/12/08 08:01:33;;;;;;;147.80;51.63;;;;;;;10.19;100.00;-4696.53;5072667;28;20193;-63
2022/12/08 08:04:03;;;;;;;101.43;48.23;;;;;;;10.04;100.00;1366.47;5072443;28;20181;-63
2022/12/08 08:06:30;;;;;;;75.37;43.07;;;;;;;9.95;100.00;9038.75;5071648;28;20195;-62
2022/12/08 08:08:58;;;;;;;88.13;45.27;;;;;;;9.44;100.00;6151.69;5072454;28;20196;-62
2022/12/08 08:11:25;;;;;;;92.23;43.13;;;;;;;9.11;100.00;-4375.53;5072627;28;20600;-63
2022/12/08 08:13:53;;;;;;;76.07;41.10;;;;;;;8.93;100.00;-9145.50;5070209;28;20205;-62
2022/12/08 08:16:20;;;;;;;75.23;38.43;;;;;;;8.97;100.00;-11052.13;5071839;28;20287;-61
2022/12/08 08:18:48;;;;;;;76.17;39.63;;;;;;;8.89;100.00;-11686.25;5072168;28;20585;-61
2022/12/08 08:21:15;;;;;;;99.33;40.77;;;;;;;8.96;100.00;-12639.69;5072611;28;20188;-62
2022/12/08 08:23:42;;;;;;;73.37;37.13;;;;;;;8.83;100.00;-13272.41;5072582;28;20204;-63
2022/12/08 08:26:11;;;;;;;76.77;35.43;;;;;;;8.87;100.00;-13907.69;5072460;28;20185;-62
2022/12/08 08:28:38;;;;;;;72.27;35.80;;;;;;;8.80;100.00;-14223.78;5072885;28;20189;-62
2022/12/08 08:31:06;;;;;;;69.17;35.17;;;;;;;9.03;100.00;-14545.28;5072837;28;20617;-61
2022/12/08 08:33:33;;;;;;;67.33;34.47;;;;;;;9.01;100.00;-13275.44;5071872;28;20208;-62
2022/12/08 08:36:00;;;;;;;84.87;37.47;;;;;;;9.21;100.00;-13278.56;5071948;28;20291;-62
2022/12/08 08:38:28;;;;;;;73.57;36.33;;;;;;;9.30;100.00;-12327.19;5071663;28;20208;-61
2022/12/08 08:40:54;;;;;;;82.13;36.97;;;;;;;9.45;100.00;-11693.91;5071834;28;20189;-60
2022/12/08 08:43:29;;;;;;;78.60;38.37;;;;;;;9.38;100.00;-12010.75;5070856;28;20189;-61
2022/12/08 08:46:01;;;;;;;79.53;37.80;;;;;;;9.51;100.00;-12330.34;5069088;28;20279;-63
2022/12/08 08:48:41;;;;;;;72.87;35.50;;;;;;;9.52;100.00;-12330.56;5070307;28;20181;-61
2022/12/08 08:51:10;;;;;;;67.83;35.13;;;;;;;9.44;100.00;-12964.69;5069774;28;20224;-62
2022/12/08 08:53:47;;;;;;;76.97;36.60;;;;;;;9.52;100.00;-13919.06;5071309;28;20681;-62
2022/12/08 08:56:21;;;;;;;87.00;36.83;;;;;;;9.37;100.00;-14551.38;5069762;28;20667;-62
2022/12/08 08:58:57;;;;;;;76.90;38.57;;;;;;;9.27;100.00;-16136.41;5069798;28;20192;-63
2022/12/08 09:01:27;;;;;;;79.03;39.47;;;;;;;9.21;100.00;-15500.59;5071422;28;20189;-62
2022/12/08 09:04:33;;;;;;;73.13;39.50;;;;;;;9.46;100.00;-15822.94;5068974;28;20268;-63
2022/12/08 09:07:07;;;;;;;81.13;40.63;;;;;;;9.57;100.00;-15507.81;5070869;28;20192;-62
2022/12/08 09:09:54;;;;;;;95.63;41.17;;;;;;;9.67;100.00;-15509.63;5070506;28;20283;-61
2022/12/08 09:12:21;;;;;;;89.53;41.53;;;;;;;9.66;100.00;-15827.03;5070332;28;20269;-63
2022/12/08 09:14:56;;;;;;;90.40;46.17;;;;;;;9.98;100.00;-15198.13;5069408;28;20208;-63
2022/12/08 09:17:28;;;;;;;70.53;39.40;;;;;;;9.96;100.00;-12336.97;5069663;28;20184;-62
2022/12/08 09:20:05;;;;;;;63.23;35.47;;;;;;;10.00;100.00;-12337.63;5071168;28;20219;-62
2022/12/08 09:22:36;;;;;;;85.97;37.00;;;;;;;10.14;100.00;-12657.72;5069625;28;20191;-61
2022/12/08 09:25:09;;;;;;;64.70;34.97;;;;;;;10.27;100.00;-13932.00;5069186;28;20228;-62
2022/12/08 09:27:50;;;;;;;60.67;33.53;;;;;;;10.40;100.00;-12343.53;5069685;28;20287;-61
2022/12/08 09:30:45;;;;;;;73.77;34.47;;;;;;;10.19;100.00;-10112.78;5069780;28;20238;-62
2022/12/08 09:33:16;;;;;;;74.00;35.43;;;;;;;10.36;100.00;-10433.09;5068986;28;20232;-62
2022/12/08 09:35:53;;;;;;;69.70;32.93;;;;;;;10.55;100.00;-9798.25;5068896;28;20197;-62
2022/12/08 09:38:24;;;;;;;58.07;32.43;;;;;;;10.79;100.00;-9482.13;5070279;28;20258;-62
2022/12/08 09:40:56;;;;;;;78.37;34.50;;;;;;;10.93;100.00;-8845.88;5070624;28;20231;-62
2022/12/08 09:43:50;;;;;;;63.37;33.90;;;;;;;10.93;100.00;-8208.13;5069933;28;20192;-61
2022/12/08 09:46:26;;;;;;;68.43;36.93;;;;;;;10.79;100.00;-8525.81;5070449;28;20224;-62
2022/12/08 09:49:08;;;;;;;65.10;37.03;;;;;;;11.02;100.00;-10121.94;5069731;28;20270;-61
2022/12/08 09:52:09;;;;;;;71.37;36.33;;;;;;;11.11;100.00;-10441.75;5069779;28;20242;-63
2022/12/08 09:54:43;;;;;;;87.10;38.93;;;;;;;11.30;100.00;-9806.16;5063077;28;20769;-62
2022/12/08 09:57:20;;;;;;;65.67;35.90;;;;;;;11.48;100.00;-7254.84;5069876;28;20548;-62
2022/12/08 09:59:52;;;;;;;65.93;36.50;;;;;;;11.53;100.00;-5019.28;5069710;28;20206;-62
2022/12/08 10:02:23;;;;;;;68.50;36.43;;;;;;;11.62;100.00;-3101.53;5070807;28;20258;-61
2022/12/08 10:04:50;;;;;;;104.07;44.93;;;;;;;11.68;100.00;-3101.53;5070135;28;20181;-63
2022/12/08 10:07:20;;;;;;;76.23;39.13;;;;;;;11.71;100.00;-4060.81;5062711;28;20197;-62
2022/12/08 10:09:58;;;;;;;77.87;37.00;;;;;;;11.82;100.00;-3421.34;5050025;28;20277;-63
2022/12/08 10:12:30;;;;;;;78.10;36.13;;;;;;;12.00;100.00;-540.84;5050045;28;20197;-61
2022/12/08 10:15:05;;;;;;;89.93;37.37;;;;;;;12.07;100.00;1381.47;5053342;28;20223;-61
2022/12/08 10:17:37;;;;;;;83.37;40.70;;;;;;;12.02;100.00;3304.09;5070400;28;20279;-63
2022/12/08 10:20:14;;;;;;;85.67;42.60;;;;;;;11.97;100.00;740.03;5069206;28;20226;-61
2022/12/08 10:22:41;;;;;;;76.53;42.23;;;;;;;11.94;100.00;-1821.53;5070551;28;20231;-62
2022/12/08 10:25:17;;;;;;;83.40;43.60;;;;;;;12.07;100.00;-2461.41;5070467;28;20192;-61
2022/12/08 10:27:46;;;;;;;104.90;46.50;;;;;;;12.21;100.00;-539.91;5070302;28;20205;-62
2022/12/08 10:30:15;;;;;;;97.10;46.37;;;;;;;12.47;100.00;1063.81;5072876;28;20189;-61
2022/12/08 10:32:49;;;;;;;94.13;45.27;;;;;;;12.70;100.00;4595.31;5074534;28;20207;-62
2022/12/08 10:35:19;;;;;;;78.63;42.20;;;;;;;13.59;100.00;13621.69;5074696;28;20208;-61
2022/12/08 10:37:56;;;;;;;81.73;40.33;;;;;;;14.77;100.00;41224.25;5074851;28;20548;-61
2022/12/08 10:40:23;;;;;;;86.40;42.10;;;;;;;15.78;100.00;122176.28;5074514;28;20238;-62
2022/12/08 10:42:53;;;;;;;63.83;36.13;;;;;;;16.78;100.00;150255.84;5074313;28;20188;-61
2022/12/08 10:45:26;;;;;;;68.80;37.37;;;;;;;17.82;100.00;150516.41;5073656;28;20592;-61
2022/12/08 10:48:01;;;;;;;60.97;34.23;;;;;;;18.59;100.00;150709.66;5074522;28;20189;-62
2022/12/08 10:50:33;;;;;;;59.93;35.13;;;;;;;18.65;100.00;150726.22;5074033;28;20235;-66
2022/12/08 10:53:02;;;;;;;71.30;36.10;;;;;;;18.77;100.00;150754.19;5074296;28;20184;-62
2022/12/08 10:55:39;;;;;;;74.07;34.90;;;;;;;19.33;100.00;150895.41;5074885;28;20280;-62
2022/12/08 10:58:06;;;;;;;58.17;33.80;;;;;;;20.42;100.00;151171.72;5073906;28;20220;-61
2022/12/08 11:00:33;;;;;;;57.83;34.13;;;;;;;21.75;100.00;151505.59;5073659;28;20659;-62
2022/12/08 11:03:03;;;;;;;64.10;33.45;;;;;;;22.47;100.00;151687.97;5074052;28;20575;-61
2022/12/08 11:05:33;;;;;;;61.40;33.20;;;;;;;22.84;100.00;151781.09;5073677;28;20177;-62
2022/12/08 11:08:04;;;;;;;67.70;33.92;;;;;;;23.91;100.00;152051.69;5073770;28;20177;-62
2022/12/08 11:10:35;;;;;;;55.50;33.75;;;;;;;24.49;100.00;152198.56;5073815;28;20566;-62
2022/12/08 11:13:04;;;;;;;50.95;32.65;;;;;;;24.59;100.00;152222.81;5073921;28;20192;-62
2022/12/08 11:15:38;;;;;;;55.78;33.90;;;;;;;23.64;100.00;151982.75;5073777;28;20209;-62
2022/12/08 11:18:25;;;;;;;64.72;33.75;;;;;;;22.36;100.00;151658.66;5073875;28;20192;-62
2022/12/08 11:21:05;;;;;;;56.63;32.85;;;;;;;22.02;100.00;151573.22;5073469;28;20256;-61
2022/12/08 11:23:36;;;;;;;64.18;32.10;;;;;;;21.17;100.00;151359.06;5073817;28;20559;-62
2022/12/08 11:26:11;;;;;;;53.42;33.65;;;;;;;21.19;100.00;151364.13;5073475;28;20192;-61
2022/12/08 11:28:39;;;;;;;86.07;41.95;;;;;;;20.08;100.00;151086.38;5073623;28;20258;-62
2022/12/08 11:31:17;;;;;;;83.67;39.33;;;;;;;18.66;100.00;150727.50;5073869;28;20197;-62